Time;durP1;ratioP1;P1;durP2;ratioP2;P2;SDS_P1;SDS_P2;PMS_P1;PMS_P2;Temp;Humidity;BMP_temperature;BMP_pressure;BME280_temperature;BME280_humidity;BME280_pressure;Samples;Min_cycle;Max_cycle;Signal;HPM_P1;HPM_P2
2022/11/12 00:00:58;;;;;;;;;;;;;;;14.76;63.29;101800.72;5075171;28;19931;-70
2022/11/12 00:03:24;;;;;;;;;;;;;;;14.75;62.78;101806.94;5075526;28;20296;-70
2022/11/12 00:05:50;;;;;;;;;;;;;;;14.92;62.74;101804.00;5076950;28;20296;-69
2022/11/12 00:08:16;;;;;;;;;;;;;;;15.11;61.78;101812.50;5075285;28;19920;-70
2022/11/12 00:10:41;;;;;;;;;;;;;;;14.87;62.45;101825.25;5075547;28;20474;-71
2022/11/12 00:13:06;;;;;;;;;;;;;;;14.89;62.34;101825.25;5075737;28;19916;-71
2022/11/12 00:15:32;;;;;;;;;;;;;;;14.91;62.34;101816.34;5075754;28;20364;-70
2022/11/12 00:17:57;;;;;;;;;;;;;;;14.87;62.73;101814.66;5074449;28;19921;-71
2022/11/12 00:20:22;;;;;;;;;;;;;;;14.89;62.45;101818.19;5073429;28;19966;-70
2022/11/12 00:22:47;;;;;;;;;;;;;;;14.94;62.12;101818.97;5074828;28;20299;-70
2022/11/12 00:25:13;;;;;;;;;;;;;;;14.83;62.49;101820.91;5074597;28;19955;-70
2022/11/12 00:27:38;;;;;;;;;;;;;;;14.71;62.60;101823.75;5073252;28;19931;-69
2022/11/12 00:30:04;;;;;;;;;;;;;;;14.61;62.82;101836.25;5072027;28;19997;-69
2022/11/12 00:32:29;;;;;;;;;;;;;;;14.39;63.67;101830.38;5074868;28;20011;-70
2022/11/12 00:34:54;;;;;;;;;;;;;;;14.48;63.57;101824.97;5072986;28;19955;-69
2022/11/12 00:37:21;;;;;;;;;;;;;;;14.59;63.05;101823.94;5106618;28;19921;-70
2022/11/12 00:39:47;;;;;;;;;;;;;;;14.59;63.23;101829.25;5074292;28;20390;-70
2022/11/12 00:42:12;;;;;;;;;;;;;;;14.67;62.87;101820.28;5074845;28;19917;-69
2022/11/12 00:44:37;;;;;;;;;;;;;;;14.70;62.90;101827.31;5075119;28;19967;-69
2022/11/12 00:47:03;;;;;;;;;;;;;;;14.85;62.69;101827.06;5074409;28;20277;-69
2022/11/12 00:49:28;;;;;;;;;;;;;;;14.71;62.67;101839.63;5071521;28;20011;-70
2022/11/12 00:51:53;;;;;;;;;;;;;;;14.81;62.82;101829.78;5074419;28;19939;-69
2022/11/12 00:54:19;;;;;;;;;;;;;;;14.92;62.33;101834.00;5073777;28;19927;-69
2022/11/12 00:56:47;;;;;;;;;;;;;;;14.94;62.24;101833.97;5073195;28;19925;-70
2022/11/12 00:59:13;;;;;;;;;;;;;;;14.94;62.40;101828.69;5073740;28;20384;-69
2022/11/12 01:01:38;;;;;;;;;;;;;;;14.72;63.42;101825.50;5073700;28;19928;-69
2022/11/12 01:04:04;;;;;;;;;;;;;;;14.68;62.76;101822.06;5073782;28;20054;-71
2022/11/12 01:06:29;;;;;;;;;;;;;;;14.77;63.11;101826.31;5074564;28;19942;-70
2022/11/12 01:08:55;;;;;;;;;;;;;;;15.05;61.98;101818.78;5073829;28;20364;-69
2022/11/12 01:11:25;;;;;;;;;;;;;;;14.90;62.09;101825.22;5073467;28;19929;-71
2022/11/12 01:14:04;;;;;;;;;;;;;;;15.11;61.71;101817.78;5059274;28;20850;-68
2022/11/12 01:16:30;;;;;;;;;;;;;;;14.72;62.54;101830.78;5051244;28;19917;-71
2022/11/12 01:18:57;;;;;;;;;;;;;;;14.66;62.71;101823.84;5066123;28;19924;-69
2022/11/12 01:21:23;;;;;;;;;;;;;;;14.72;62.73;101821.09;5069439;28;19920;-69
2022/11/12 01:23:49;;;;;;;;;;;;;;;14.90;62.01;101825.22;5067965;28;19921;-69
2022/11/12 01:26:15;;;;;;;;;;;;;;;14.82;62.47;101821.81;5068215;28;19928;-68
2022/11/12 01:28:41;;;;;;;;;;;;;;;15.01;61.80;101825.91;5069935;28;19920;-69
2022/11/12 01:31:21;;;;;;;;;;;;;;;15.18;62.00;101828.25;5070127;28;20415;-68
2022/11/12 01:33:47;;;;;;;;;;;;;;;15.22;61.33;101826.44;5059785;28;19924;-69
2022/11/12 01:36:14;;;;;;;;;;;;;;;15.21;61.20;101822.03;5071228;28;20002;-68
2022/11/12 01:38:40;;;;;;;;;;;;;;;14.93;62.02;101830.47;5070453;28;20327;-71
2022/11/12 01:41:06;;;;;;;;;;;;;;;15.11;61.80;101823.09;5069406;28;19920;-69
2022/11/12 01:43:32;;;;;;;;;;;;;;;14.96;62.54;101830.41;5068399;28;19931;-71
2022/11/12 01:46:00;;;;;;;;;;;;;;;15.01;61.89;101833.84;5069176;28;20015;-70
2022/11/12 01:48:27;;;;;;;;;;;;;;;15.09;62.46;101824.91;5072573;28;19920;-70
2022/11/12 01:50:53;;;;;;;;;;;;;;;15.01;62.02;101833.84;5073190;28;19927;-70
2022/11/12 01:53:19;;;;;;;;;;;;;;;14.69;62.82;101844.09;5071867;28;19924;-70
2022/11/12 01:55:45;;;;;;;;;;;;;;;14.66;63.35;101831.75;5073009;28;19928;-70
2022/11/12 01:58:12;;;;;;;;;;;;;;;14.80;63.04;101836.81;5073862;28;19921;-70
2022/11/12 02:00:38;;;;;;;;;;;;;;;14.51;63.64;101832.00;5073605;28;19924;-70
2022/11/12 02:03:06;;;;;;;;;;;;;;;14.46;63.73;101845.25;5071340;28;19924;-70
2022/11/12 02:05:32;;;;;;;;;;;;;;;14.60;63.56;101836.25;5074244;28;19924;-70
2022/11/12 02:07:59;;;;;;;;;;;;;;;14.73;63.32;101845.78;5075288;28;19925;-71
2022/11/12 02:10:24;;;;;;;;;;;;;;;14.90;62.87;101845.50;5073002;28;19924;-70
2022/11/12 02:15:35;;;;;;;;;;;;;;;14.39;64.31;101853.31;5073164;28;20453;-70
2022/11/12 02:18:01;;;;;;;;;;;;;;;14.49;64.23;101849.69;5074178;28;19978;-71
2022/11/12 02:20:26;;;;;;;;;;;;;;;14.72;63.71;101844.00;5069870;28;19928;-70
2022/11/12 02:22:52;;;;;;;;;;;;;;;14.73;63.63;101853.72;5072769;28;19924;-71
2022/11/12 02:25:22;;;;;;;;;;;;;;;14.66;63.94;101852.94;5072716;28;20429;-70
2022/11/12 02:27:50;;;;;;;;;;;;;;;14.76;63.59;101851.91;5072563;28;19920;-69
2022/11/12 02:30:16;;;;;;;;;;;;;;;14.68;63.78;101844.97;5073665;28;19922;-69
2022/11/12 02:32:41;;;;;;;;;;;;;;;14.83;63.41;101844.72;5073055;28;19960;-68
2022/11/12 02:35:07;;;;;;;;;;;;;;;14.75;63.67;101850.13;5106137;28;19963;-69
2022/11/12 02:37:32;;;;;;;;;;;;;;;14.76;63.72;101856.28;5105082;28;19931;-69
2022/11/12 02:39:57;;;;;;;;;;;;;;;14.66;64.26;101852.94;5073330;28;20011;-69
2022/11/12 02:42:22;;;;;;;;;;;;;;;14.88;63.30;101853.47;5072212;28;19936;-70
2022/11/12 02:44:48;;;;;;;;;;;;;;;15.19;62.45;101853.81;5072596;28;20284;-69
2022/11/12 02:47:13;;;;;;;;;;;;;;;14.97;63.00;101852.47;5073640;28;19921;-68
2022/11/12 02:49:38;;;;;;;;;;;;;;;15.01;62.98;101856.78;5073583;28;20019;-70
2022/11/12 02:52:03;;;;;;;;;;;;;;;15.03;63.24;101855.84;5073059;28;20139;-69
2022/11/12 02:54:29;;;;;;;;;;;;;;;15.13;62.71;101858.38;5076994;28;19927;-70
2022/11/12 02:56:54;;;;;;;;;;;;;;;15.11;62.66;101862.78;5076921;28;19916;-71
2022/11/12 02:59:19;;;;;;;;;;;;;;;14.78;63.72;101862.44;5077375;28;20326;-70
2022/11/12 03:01:44;;;;;;;;;;;;;;;14.90;63.61;101861.38;5076127;28;19978;-69
2022/11/12 03:04:10;;;;;;;;;;;;;;;14.84;63.55;101867.66;5075033;28;19936;-68
2022/11/12 03:06:35;;;;;;;;;;;;;;;14.85;63.67;101853.53;5075849;28;19925;-68
2022/11/12 03:09:00;;;;;;;;;;;;;;;14.72;63.96;101859.88;5076257;28;19925;-68
2022/11/12 03:11:26;;;;;;;;;;;;;;;15.02;63.21;101862.06;5076959;28;19920;-69
2022/11/12 03:13:51;;;;;;;;;;;;;;;15.01;63.47;101855.03;5075955;28;19930;-70
2022/11/12 03:16:16;;;;;;;;;;;;;;;14.70;64.18;101867.00;5075918;28;20372;-69
2022/11/12 03:18:41;;;;;;;;;;;;;;;14.81;64.06;101867.69;5074689;28;20007;-68
2022/11/12 03:21:07;;;;;;;;;;;;;;;14.85;63.91;101852.66;5076621;28;19927;-70
2022/11/12 03:23:32;;;;;;;;;;;;;;;15.00;63.89;101849.72;5075530;28;19925;-69
2022/11/12 03:25:57;;;;;;;;;;;;;;;15.06;63.49;101860.22;5074377;28;19944;-70
2022/11/12 03:28:23;;;;;;;;;;;;;;;14.91;63.63;101853.41;5075678;28;19924;-71
2022/11/12 03:30:48;;;;;;;;;;;;;;;14.99;63.40;101859.44;5075474;28;19931;-69
2022/11/12 03:33:14;;;;;;;;;;;;;;;15.16;62.88;101855.63;5075565;28;19921;-68
2022/11/12 03:35:40;;;;;;;;;;;;;;;14.96;63.51;101851.59;5075245;28;19920;-67
2022/11/12 03:38:05;;;;;;;;;;;;;;;14.92;63.75;101847.25;5076723;28;19928;-68
2022/11/12 03:40:31;;;;;;;;;;;;;;;14.71;64.34;101850.22;5074301;28;19938;-70
2022/11/12 03:42:56;;;;;;;;;;;;;;;14.86;63.87;101847.31;5074904;28;19967;-70
2022/11/12 03:45:23;;;;;;;;;;;;;;;15.02;63.46;101848.81;5075472;28;19974;-69
2022/11/12 03:47:49;;;;;;;;;;;;;;;14.84;63.78;101853.53;5074960;28;19920;-69
2022/11/12 03:50:16;;;;;;;;;;;;;;;14.95;64.49;101855.09;5074333;28;19935;-70
2022/11/12 03:52:49;;;;;;;;;;;;;;;15.01;63.62;101852.38;5076093;28;19921;-70
2022/11/12 03:55:17;;;;;;;;;;;;;;;15.16;63.08;101853.00;5072303;28;20225;-69
2022/11/12 03:57:42;;;;;;;;;;;;;;;14.90;63.77;101854.31;5075959;28;20363;-71
2022/11/12 04:00:08;;;;;;;;;;;;;;;15.01;63.38;101846.22;5074693;28;20019;-69
2022/11/12 04:02:33;;;;;;;;;;;;;;;15.03;63.47;101850.56;5075510;28;19955;-70
2022/11/12 04:10:28;;;;;;;;;;;;;;;15.31;62.76;101841.28;5076020;28;19925;-69
2022/11/12 04:15:37;;;;;;;;;;;;;;;15.16;62.91;101845.06;5075095;28;19931;-69
2022/11/12 04:23:31;;;;;;;;;;;;;;;14.97;63.67;101847.16;5074828;28;20402;-69
2022/11/12 04:30:14;;;;;;;;;;;;;;;15.10;63.37;101837.22;5074976;28;19940;-70
2022/11/12 04:31:26;;;;;;;;;;;;;;;14.86;63.81;101838.53;5074704;28;20305;-70
2022/11/12 04:33:51;;;;;;;;;;;;;;;14.83;63.96;101834.13;5075343;28;20376;-69
2022/11/12 04:36:16;;;;;;;;;;;;;;;14.95;63.66;101838.34;5074677;28;19920;-69
2022/11/12 04:38:41;;;;;;;;;;;;;;;14.81;64.00;101835.94;5075159;28;19928;-70
2022/11/12 04:46:34;;;;;;;;;;;;;;;14.84;63.89;101838.56;5074949;28;19923;-70
2022/11/12 04:48:59;;;;;;;;;;;;;;;14.82;63.64;101835.03;5073226;28;19924;-69
2022/11/12 04:54:09;;;;;;;;;;;;;;;14.83;63.51;101828.84;5075234;28;20073;-70
2022/11/12 04:56:34;;;;;;;;;;;;;;;14.86;63.69;101826.16;5074900;28;20193;-69
2022/11/12 04:58:59;;;;;;;;;;;;;;;14.98;63.18;101833.03;5073857;28;19924;-70
2022/11/12 05:01:24;;;;;;;;;;;;;;;14.75;63.93;101833.38;5073466;28;19935;-70
2022/11/12 05:03:50;;;;;;;;;;;;;;;14.77;63.98;101829.84;5074905;28;19916;-69
2022/11/12 05:08:59;;;;;;;;;;;;;;;14.80;63.70;101834.19;5074021;28;19932;-70
2022/11/12 05:11:24;;;;;;;;;;;;;;;14.62;64.32;101831.84;5074416;28;19925;-70
2022/11/12 05:13:49;;;;;;;;;;;;;;;14.71;64.30;101829.91;5072724;28;19921;-70
2022/11/12 05:16:15;;;;;;;;;;;;;;;14.81;63.92;101829.78;5072156;28;20293;-70
2022/11/12 05:18:40;;;;;;;;;;;;;;;14.75;63.99;101836.91;5074483;28;19923;-69
2022/11/12 05:22:04;;;;;;;;;;;;;;;14.81;63.93;101828.00;5074235;28;19916;-69
2022/11/12 05:23:50;;;;;;;;;;;;;;;14.71;64.21;101832.56;5074385;28;19921;-69
2022/11/12 05:26:15;;;;;;;;;;;;;;;14.71;64.34;101834.34;5073313;28;19927;-69
2022/11/12 05:28:41;;;;;;;;;;;;;;;14.45;65.05;101842.66;5070381;28;19931;-69
2022/11/12 05:31:06;;;;;;;;;;;;;;;14.86;63.97;101843.81;5074142;28;19954;-69
2022/11/12 05:33:31;;;;;;;;;;;;;;;14.88;63.74;101850.84;5073224;28;20323;-69
2022/11/12 05:35:56;;;;;;;;;;;;;;;14.90;63.59;101849.03;5074410;28;19924;-70
2022/11/12 05:38:22;;;;;;;;;;;;;;;14.96;63.60;101855.97;5073383;28;19924;-69
2022/11/12 05:40:47;;;;;;;;;;;;;;;15.00;63.20;101850.63;5072892;28;20015;-69
2022/11/12 05:43:12;;;;;;;;;;;;;;;14.98;63.45;101857.72;5074072;28;19920;-69
2022/11/12 05:45:41;;;;;;;;;;;;;;;14.92;63.57;101848.97;5072122;28;20022;-70
2022/11/12 05:48:06;;;;;;;;;;;;;;;15.02;63.24;101850.59;5073314;28;19969;-70
2022/11/12 05:50:31;;;;;;;;;;;;;;;15.05;63.16;101847.91;5074036;28;20007;-69
2022/11/12 05:52:56;;;;;;;;;;;;;;;14.80;63.93;101850.06;5073059;28;20025;-69
2022/11/12 05:55:21;;;;;;;;;;;;;;;14.95;63.47;101857.75;5073980;28;20311;-68
2022/11/12 05:57:47;;;;;;;;;;;;;;;15.03;63.22;101863.78;5072789;28;19947;-68
2022/11/12 06:00:12;;;;;;;;;;;;;;;15.11;63.25;101861.03;5072593;28;20007;-68
2022/11/12 06:02:37;;;;;;;;;;;;;;;15.23;62.82;101871.41;5074065;28;19921;-69
2022/11/12 06:05:03;;;;;;;;;;;;;;;15.19;62.90;101872.34;5071103;28;19924;-69
2022/11/12 06:07:28;;;;;;;;;;;;;;;15.06;63.18;101867.31;5072748;28;20290;-68
2022/11/12 06:09:53;;;;;;;;;;;;;;;15.00;63.56;101868.25;5072787;28;19947;-69
2022/11/12 06:12:18;;;;;;;;;;;;;;;14.97;63.51;101874.50;5105487;28;19939;-69
2022/11/12 06:14:44;;;;;;;;;;;;;;;14.89;63.63;101871.09;5073705;28;19921;-68
2022/11/12 06:17:09;;;;;;;;;;;;;;;15.11;63.12;101883.97;5072986;28;20300;-70
2022/11/12 06:19:34;;;;;;;;;;;;;;;14.82;63.83;101880.03;5070935;28;19925;-69
2022/11/12 06:21:59;;;;;;;;;;;;;;;14.96;63.60;101886.00;5072591;28;19971;-70
2022/11/12 06:24:25;;;;;;;;;;;;;;;15.15;62.93;101885.66;5074971;28;20293;-69
2022/11/12 06:26:50;;;;;;;;;;;;;;;15.02;63.20;101885.88;5075526;28;19921;-70
2022/11/12 06:29:15;;;;;;;;;;;;;;;14.96;63.28;101880.69;5076904;28;19925;-68
2022/11/12 06:31:41;;;;;;;;;;;;;;;14.85;63.76;101895.88;5077583;28;19917;-70
2022/11/12 06:34:06;;;;;;;;;;;;;;;15.13;62.91;101896.28;5074467;28;20376;-69
2022/11/12 06:36:31;;;;;;;;;;;;;;;15.38;62.41;101891.44;5079445;28;20061;-68
2022/11/12 06:38:56;;;;;;;;;;;;;;;15.46;62.12;101900.13;5076428;28;19931;-69
2022/11/12 06:41:22;;;;;;;;;;;;;;;15.26;62.21;101902.25;5080525;28;19964;-69
2022/11/12 06:43:47;;;;;;;;;;;;;;;15.50;61.94;101901.81;5087270;28;19920;-69
2022/11/12 06:46:13;;;;;;;;;;;;;;;15.64;61.62;101900.69;5082089;28;19986;-69
2022/11/12 06:48:39;;;;;;;;;;;;;;;15.69;61.45;101913.00;5077273;28;19932;-69
2022/11/12 06:51:06;;;;;;;;;;;;;;;15.45;62.02;101916.06;5076082;28;19925;-70
2022/11/12 06:53:31;;;;;;;;;;;;;;;15.44;61.86;101911.66;5084581;28;19927;-69
2022/11/12 06:56:00;;;;;;;;;;;;;;;15.41;62.23;101909.06;5081731;28;20342;-70
2022/11/12 06:58:25;;;;;;;;;;;;;;;15.49;62.10;101910.69;5078603;28;19928;-68
2022/11/12 07:00:50;;;;;;;;;;;;;;;15.16;62.73;101904.19;5086556;28;20035;-69
2022/11/12 07:03:16;;;;;;;;;;;;;;;15.25;62.66;101905.81;5092706;28;19931;-69
2022/11/12 07:05:41;;;;;;;;;;;;;;;15.11;62.97;101919.25;5090241;28;19924;-69
2022/11/12 07:08:06;;;;;;;;;;;;;;;15.12;63.09;101912.19;5077348;28;19921;-68
2022/11/12 07:10:32;;;;;;;;;;;;;;;15.19;62.78;101927.94;5081729;28;19928;-70
2022/11/12 07:12:57;;;;;;;;;;;;;;;15.27;62.85;101930.47;5078837;28;19932;-69
2022/11/12 07:15:22;;;;;;;;;;;;;;;15.18;63.03;101925.34;5079759;28;20299;-68
2022/11/12 07:17:48;;;;;;;;;;;;;;;15.28;62.84;101919.00;5078889;28;20002;-68
2022/11/12 07:20:13;;;;;;;;;;;;;;;15.24;62.70;101926.13;5089968;28;20291;-69
2022/11/12 07:22:38;;;;;;;;;;;;;;;15.17;62.91;101920.94;5092794;28;20016;-70
2022/11/12 07:25:04;;;;;;;;;;;;;;;15.31;62.65;101928.66;5080286;28;19928;-68
2022/11/12 07:27:30;;;;;;;;;;;;;;;15.27;62.86;101941.94;5086271;28;19920;-69
2022/11/12 07:29:55;;;;;;;;;;;;;;;15.41;62.29;101944.38;5074760;28;19987;-69
2022/11/12 07:32:20;;;;;;;;;;;;;;;15.27;62.72;101943.72;5089356;28;19924;-70
2022/11/12 07:34:45;;;;;;;;;;;;;;;15.09;63.40;101942.25;5093167;28;19924;-70
2022/11/12 07:37:11;;;;;;;;;;;;;;;15.47;62.34;101938.97;5089913;28;19924;-71
2022/11/12 07:39:36;;;;;;;;;;;;;;;15.42;62.36;101942.59;5090789;28;20011;-71
2022/11/12 07:42:01;;;;;;;;;;;;;;;15.55;62.10;101946.78;5079484;28;19960;-70
2022/11/12 07:44:27;;;;;;;;;;;;;;;15.26;62.84;101941.97;5075914;28;20380;-70
2022/11/12 07:46:52;;;;;;;;;;;;;;;15.36;62.82;101943.59;5085253;28;19995;-70
2022/11/12 07:49:17;;;;;;;;;;;;;;;15.45;62.51;101943.41;5076921;28;19952;-70
2022/11/12 07:51:42;;;;;;;;;;;;;;;15.44;62.48;101949.63;5078222;28;19931;-69
2022/11/12 07:54:08;;;;;;;;;;;;;;;15.40;62.61;101953.22;5082800;28;19931;-70
2022/11/12 07:56:33;;;;;;;;;;;;;;;15.62;61.98;101956.38;5073650;28;19977;-69
2022/11/12 07:58:58;;;;;;;;;;;;;;;15.79;62.20;101956.09;5059076;28;19924;-71
2022/11/12 08:01:26;;;;;;;;;;;;;;;15.82;61.63;101960.47;5090012;28;20019;-71
2022/11/12 08:03:52;;;;;;;;;;;;;;;15.79;61.65;101960.53;5074438;28;19928;-70
2022/11/12 08:06:17;;;;;;;;;;;;;;;15.80;61.51;101970.22;5075895;28;20050;-69
2022/11/12 08:08:42;;;;;;;;;;;;;;;15.80;61.39;101970.22;5073569;28;19933;-70
2022/11/12 08:11:07;;;;;;;;;;;;;;;15.58;62.36;101972.34;5074635;28;20548;-70
2022/11/12 08:13:32;;;;;;;;;;;;;;;15.57;62.11;101973.25;5073286;28;20015;-72
2022/11/12 08:15:58;;;;;;;;;;;;;;;15.79;61.66;101985.25;5108335;27;19924;-70
2022/11/12 08:18:24;;;;;;;;;;;;;;;15.87;61.46;101970.06;5073386;28;20287;-76
2022/11/12 08:20:49;;;;;;;;;;;;;;;15.72;61.80;101976.56;5073442;28;19924;-74
2022/11/12 08:23:14;;;;;;;;;;;;;;;15.89;61.44;101997.44;5073338;28;19925;-72
2022/11/12 08:25:40;;;;;;;;;;;;;;;15.93;61.28;101974.41;5071536;28;20828;-70
2022/11/12 08:28:05;;;;;;;;;;;;;;;15.85;61.70;101992.22;5074492;28;19925;-74
2022/11/12 08:30:30;;;;;;;;;;;;;;;15.67;61.84;101988.09;5071483;28;19967;-75
2022/11/12 08:32:56;;;;;;;;;;;;;;;15.98;61.43;101976.06;5073394;28;19929;-75
2022/11/12 08:35:22;;;;;;;;;;;;;;;15.73;61.75;102009.22;5089048;28;19924;-73
2022/11/12 08:37:47;;;;;;;;;;;;;;;15.97;61.41;101998.19;5072409;28;19924;-73
2022/11/12 08:40:12;;;;;;;;;;;;;;;15.86;61.57;101988.66;5074087;28;20043;-73
2022/11/12 08:42:37;;;;;;;;;;;;;;;15.77;61.82;102005.63;5073835;28;19921;-72
2022/11/12 08:45:03;;;;;;;;;;;;;;;15.85;61.53;102000.19;5075721;28;19963;-73
2022/11/12 08:47:28;;;;;;;;;;;;;;;15.62;62.29;101995.25;5076683;28;19927;-74
2022/11/12 08:49:53;;;;;;;;;;;;;;;15.96;61.92;101999.09;5074146;28;19978;-72
2022/11/12 08:52:19;;;;;;;;;;;;;;;15.96;61.73;101991.13;5109007;28;19928;-74
2022/11/12 08:54:44;;;;;;;;;;;;;;;15.86;61.72;102007.22;5107523;28;19924;-73
2022/11/12 08:57:09;;;;;;;;;;;;;;;15.83;62.03;101997.53;5073636;28;19927;-75
2022/11/12 08:59:34;;;;;;;;;;;;;;;15.87;61.90;101998.34;5075162;28;19955;-73
2022/11/12 09:02:00;;;;;;;;;;;;;;;16.08;61.42;102005.94;5075480;28;19926;-73
2022/11/12 09:04:25;;;;;;;;;;;;;;;16.12;61.79;102004.09;5074792;28;19920;-72
2022/11/12 09:06:50;;;;;;;;;;;;;;;16.38;60.47;102004.44;5075020;28;19924;-73
2022/11/12 09:09:15;;;;;;;;;;;;;;;16.19;60.91;102005.72;5073691;28;19971;-74
2022/11/12 09:11:41;;;;;;;;;;;;;;;16.21;60.86;102001.28;5074457;28;19928;-72
2022/11/12 09:14:06;;;;;;;;;;;;;;;16.42;60.65;102006.13;5074682;28;20359;-74
2022/11/12 09:16:31;;;;;;;;;;;;;;;16.50;62.23;102003.34;5074496;28;20421;-74
2022/11/12 09:18:56;;;;;;;;;;;;;;;16.30;60.66;102001.09;5074454;28;19929;-73
2022/11/12 09:21:23;;;;;;;;;;;;;;;16.56;61.98;101991.75;5074315;28;20399;-73
2022/11/12 09:23:48;;;;;;;;;;;;;;;16.62;60.43;101995.13;5074448;28;19921;-73
2022/11/12 09:26:14;;;;;;;;;;;;;;;16.67;60.88;101998.53;5073001;28;20292;-71
2022/11/12 09:28:39;;;;;;;;;;;;;;;16.69;59.78;101995.88;5073089;28;19920;-74
2022/11/12 09:31:05;;;;;;;;;;;;;;;16.68;60.40;101995.00;5074580;28;20356;-74
2022/11/12 09:33:32;;;;;;;;;;;;;;;16.66;60.42;101990.63;5074307;28;20391;-74
2022/11/12 09:35:59;;;;;;;;;;;;;;;16.83;59.79;102001.75;5074269;28;19917;-73
2022/11/12 09:38:24;;;;;;;;;;;;;;;17.08;60.84;101995.94;5075491;28;19942;-78
2022/11/12 09:40:49;;;;;;;;;;;;;;;17.31;60.79;101993.56;5090851;28;20306;-75
2022/11/12 09:43:18;;;;;;;;;;;;;;;17.15;58.55;101989.53;5089289;28;19928;-77
2022/11/12 09:45:45;;;;;;;;;;;;;;;16.84;59.29;101995.56;5091244;28;20371;-77
2022/11/12 09:48:13;;;;;;;;;;;;;;;16.75;59.82;101986.00;5089304;28;20015;-76
2022/11/12 09:50:42;;;;;;;;;;;;;;;16.56;59.96;101982.00;5089219;28;19920;-73
2022/11/12 09:53:16;;;;;;;;;;;;;;;16.95;59.72;101990.88;5094324;28;19962;-78
2022/11/12 09:55:44;;;;;;;;;;;;;;;16.93;59.59;102000.66;5070852;28;19920;-78
2022/11/12 09:58:11;;;;;;;;;;;;;;;16.74;59.81;101994.88;5077077;28;19916;-77
2022/11/12 10:00:37;;;;;;;;;;;;;;;17.07;58.88;102000.34;5057791;28;19928;-79
2022/11/12 10:03:05;;;;;;;;;;;;;;;17.24;59.54;101995.53;5077062;28;19916;-77
2022/11/12 10:05:30;;;;;;;;;;;;;;;17.07;58.65;102004.78;5078001;28;19927;-76
2022/11/12 10:08:05;;;;;;;;;;;;;;;16.90;58.97;102008.69;5089128;28;19920;-73
2022/11/12 10:10:40;;;;;;;;;;;;;;;17.01;58.66;102010.25;5089093;28;20002;-78
2022/11/12 10:13:18;;;;;;;;;;;;;;;17.17;58.60;102016.94;5089546;28;20371;-78
2022/11/12 10:18:42;;;;;;;;;;;;;;;16.72;59.83;102004.63;5076323;28;19932;-76
2022/11/12 10:21:22;;;;;;;;;;;;;;;16.74;59.89;102010.81;5077051;28;20008;-76
2022/11/12 10:23:51;;;;;;;;;;;;;;;16.70;60.20;102008.22;5069268;28;20025;-78
2022/11/12 10:26:18;;;;;;;;;;;;;;;16.60;60.47;102012.00;5077003;28;19990;-74
2022/11/12 10:29:02;;;;;;;;;;;;;;;16.57;60.41;102014.69;5070986;28;19927;-75
2022/11/12 10:31:28;;;;;;;;;;;;;;;16.61;60.37;102013.72;5095358;28;19916;-77
2022/11/12 10:34:12;;;;;;;;;;;;;;;16.55;60.75;102012.06;5079563;28;19921;-76
2022/11/12 10:36:37;;;;;;;;;;;;;;;16.62;60.37;102013.69;5077153;28;19920;-76
2022/11/12 10:39:02;;;;;;;;;;;;;;;16.39;61.25;102015.94;5074902;28;19921;-76
2022/11/12 10:41:29;;;;;;;;;;;;;;;16.18;62.01;102012.81;5077697;28;19927;-77
2022/11/12 10:43:56;;;;;;;;;;;;;;;16.21;61.84;102015.41;5074411;28;20421;-77
2022/11/12 10:46:35;;;;;;;;;;;;;;;16.24;62.12;102006.53;5075182;28;19920;-75
2022/11/12 10:49:02;;;;;;;;;;;;;;;16.27;61.72;102006.44;5074903;28;19924;-73
2022/11/12 10:51:32;;;;;;;;;;;;;;;16.37;61.86;101997.41;5076088;28;20376;-75
2022/11/12 10:53:57;;;;;;;;;;;;;;;16.63;61.40;101995.97;5082738;28;19931;-71
2022/11/12 10:56:27;;;;;;;;;;;;;;;16.40;61.61;102007.97;5076870;28;19924;-75
2022/11/12 10:59:07;;;;;;;;;;;;;;;16.35;61.94;102003.63;5074703;28;19921;-76
2022/11/12 11:01:33;;;;;;;;;;;;;;;16.49;61.51;101999.81;5066704;28;19929;-74
2022/11/12 11:03:59;;;;;;;;;;;;;;;16.07;62.88;102009.47;5063361;28;20329;-75
2022/11/12 11:06:25;;;;;;;;;;;;;;;16.23;62.55;102004.75;5090846;28;19959;-74
2022/11/12 11:08:52;;;;;;;;;;;;;;;16.16;62.58;102006.66;5075757;28;20384;-75
2022/11/12 11:11:22;;;;;;;;;;;;;;;16.11;63.10;102000.56;5073305;28;20383;-75
2022/11/12 11:13:48;;;;;;;;;;;;;;;16.09;63.51;102004.16;5073522;28;19917;-75
2022/11/12 11:16:24;;;;;;;;;;;;;;;16.07;63.16;102027.16;5080910;28;19916;-74
2022/11/12 11:19:01;;;;;;;;;;;;;;;15.99;63.45;102012.25;5077926;28;20013;-74
2022/11/12 11:21:46;;;;;;;;;;;;;;;15.82;64.24;102014.34;5074887;28;19920;-74
2022/11/12 11:24:11;;;;;;;;;;;;;;;16.01;63.74;102009.59;5073532;28;20600;-74
2022/11/12 11:26:36;;;;;;;;;;;;;;;16.32;63.07;102004.59;5076997;28;19928;-74
2022/11/12 11:29:13;;;;;;;;;;;;;;;16.44;62.48;102000.81;5073915;28;20395;-74
2022/11/12 11:31:44;;;;;;;;;;;;;;;16.34;62.88;102001.91;5075532;28;19971;-74
2022/11/12 11:34:25;;;;;;;;;;;;;;;16.30;63.04;102003.72;5073098;28;20375;-74
2022/11/12 11:36:50;;;;;;;;;;;;;;;16.16;63.35;102004.00;5075273;28;19921;-74
2022/11/12 11:39:18;;;;;;;;;;;;;;;16.38;62.81;102001.81;5073853;28;20418;-73
2022/11/12 11:41:51;;;;;;;;;;;;;;;16.32;62.96;101996.63;5073736;28;19920;-74
2022/11/12 11:44:35;;;;;;;;;;;;;;;16.49;62.51;102012.19;5074587;28;19924;-74
2022/11/12 11:47:19;;;;;;;;;;;;;;;16.54;62.72;102012.09;5076278;28;19923;-75
2022/11/12 11:49:47;;;;;;;;;;;;;;;16.51;62.72;102021.00;5076427;28;19924;-74
2022/11/12 11:52:18;;;;;;;;;;;;;;;16.71;62.40;102012.63;5074104;28;19927;-75
2022/11/12 11:54:46;;;;;;;;;;;;;;;16.64;62.36;102027.81;5076345;28;19924;-75
2022/11/12 11:57:15;;;;;;;;;;;;;;;16.68;62.25;102010.06;5074281;28;19920;-75
2022/11/12 11:59:49;;;;;;;;;;;;;;;16.40;63.11;102007.09;5075447;28;20020;-74
2022/11/12 12:02:21;;;;;;;;;;;;;;;16.40;63.27;102005.31;5078904;28;20288;-75
2022/11/12 12:05:05;;;;;;;;;;;;;;;16.64;62.72;102003.06;5072737;28;19931;-76
2022/11/12 12:07:34;;;;;;;;;;;;;;;16.42;63.37;102011.44;5072404;28;19920;-75
2022/11/12 12:10:15;;;;;;;;;;;;;;;16.46;63.38;102006.97;5074712;28;19969;-75
2022/11/12 12:12:40;;;;;;;;;;;;;;;16.37;63.77;102010.66;5075852;28;19916;-76
2022/11/12 12:15:18;;;;;;;;;;;;;;;16.19;64.55;102003.06;5073623;28;19932;-75
2022/11/12 12:17:50;;;;;;;;;;;;;;;16.16;64.68;102003.16;5076085;28;19920;-75
2022/11/12 12:20:19;;;;;;;;;;;;;;;16.24;64.63;102014.47;5076574;28;19962;-75
2022/11/12 12:22:50;;;;;;;;;;;;;;;16.28;64.64;101992.28;5095670;28;19916;-73
2022/11/12 12:25:28;;;;;;;;;;;;;;;16.23;64.86;101997.66;5094488;28;19966;-72
2022/11/12 12:28:32;;;;;;;;;;;;;;;16.31;64.52;101994.00;5070775;28;20280;-74
2022/11/12 12:31:00;;;;;;;;;;;;;;;16.44;64.42;101993.72;5069687;28;19985;-73
2022/11/12 12:33:31;;;;;;;;;;;;;;;16.25;64.83;102009.13;5073007;28;20398;-74
2022/11/12 12:35:58;;;;;;;;;;;;;;;16.28;65.07;102005.56;5063796;28;19920;-73
2022/11/12 12:38:30;;;;;;;;;;;;;;;16.25;64.89;102002.97;5075136;28;19916;-72
2022/11/12 12:41:11;;;;;;;;;;;;;;;16.46;64.59;102001.66;5073951;28;19916;-74
2022/11/12 12:43:44;;;;;;;;;;;;;;;16.32;64.78;101999.28;5076191;28;19927;-74
2022/11/12 12:46:11;;;;;;;;;;;;;;;16.07;65.66;102003.28;5075139;28;19940;-73
2022/11/12 12:48:39;;;;;;;;;;;;;;;16.36;64.93;102013.38;5077159;28;19968;-74
2022/11/12 12:51:04;;;;;;;;;;;;;;;16.49;64.67;102004.25;5073550;28;20383;-73
2022/11/12 12:53:31;;;;;;;;;;;;;;;16.51;64.24;102013.91;5075404;28;19920;-74
2022/11/12 12:56:01;;;;;;;;;;;;;;;16.43;64.62;102015.84;5073853;28;19926;-73
2022/11/12 12:58:27;;;;;;;;;;;;;;;16.24;65.23;102022.44;5074793;28;19920;-74
2022/11/12 13:00:57;;;;;;;;;;;;;;;16.32;65.40;102024.91;5074300;28;20257;-73
2022/11/12 13:03:46;;;;;;;;;;;;;;;16.31;65.30;102025.81;5073721;28;19917;-74
2022/11/12 13:06:20;;;;;;;;;;;;;;;16.12;65.90;102028.84;5068987;28;19917;-74
2022/11/12 13:08:47;;;;;;;;;;;;;;;16.31;65.45;102026.69;5069822;28;19995;-74